sensor_id;sensor_type;location;lat;lon;timestamp;temperature;humidity
2993;DHT22;1506;48.932;9.478;2024-03-08T00:00:19;2.50;99.90
2993;DHT22;1506;48.932;9.478;2024-03-08T00:02:47;2.40;91.00
2993;DHT22;1506;48.932;9.478;2024-03-08T00:05:14;2.30;82.00
2993;DHT22;1506;48.932;9.478;2024-03-08T00:07:42;2.30;83.70
2993;DHT22;1506;48.932;9.478;2024-03-08T00:10:10;2.30;85.60
2993;DHT22;1506;48.932;9.478;2024-03-08T00:12:42;2.20;77.90
2993;DHT22;1506;48.932;9.478;2024-03-08T00:15:10;2.00;74.80
2993;DHT22;1506;48.932;9.478;2024-03-08T00:17:42;2.10;78.10
2993;DHT22;1506;48.932;9.478;2024-03-08T00:20:10;2.00;75.20
2993;DHT22;1506;48.932;9.478;2024-03-08T00:22:37;2.10;73.40
2993;DHT22;1506;48.932;9.478;2024-03-08T00:25:05;2.00;83.00
2993;DHT22;1506;48.932;9.478;2024-03-08T00:27:32;2.10;89.40
2993;DHT22;1506;48.932;9.478;2024-03-08T00:29:59;2.00;92.90
2993;DHT22;1506;48.932;9.478;2024-03-08T00:32:26;2.00;92.70
2993;DHT22;1506;48.932;9.478;2024-03-08T00:34:54;2.00;95.70
2993;DHT22;1506;48.932;9.478;2024-03-08T00:37:21;2.10;96.30
2993;DHT22;1506;48.932;9.478;2024-03-08T00:39:52;1.90;99.90
2993;DHT22;1506;48.932;9.478;2024-03-08T00:42:19;2.00;99.90
2993;DHT22;1506;48.932;9.478;2024-03-08T00:44:47;2.00;99.90
2993;DHT22;1506;48.932;9.478;2024-03-08T00:47:15;1.90;99.90
2993;DHT22;1506;48.932;9.478;2024-03-08T00:49:42;1.80;99.90
2993;DHT22;1506;48.932;9.478;2024-03-08T00:52:09;2.00;99.90
2993;DHT22;1506;48.932;9.478;2024-03-08T00:54:36;1.70;99.90
2993;DHT22;1506;48.932;9.478;2024-03-08T00:57:03;1.70;99.90
2993;DHT22;1506;48.932;9.478;2024-03-08T00:59:30;1.80;99.90
2993;DHT22;1506;48.932;9.478;2024-03-08T01:01:59;2.00;99.90
2993;DHT22;1506;48.932;9.478;2024-03-08T01:04:29;2.00;99.90
2993;DHT22;1506;48.932;9.478;2024-03-08T01:06:57;2.00;99.90
2993;DHT22;1506;48.932;9.478;2024-03-08T01:09:25;1.80;99.90
2993;DHT22;1506;48.932;9.478;2024-03-08T01:11:53;2.00;99.90
2993;DHT22;1506;48.932;9.478;2024-03-08T01:14:23;1.90;99.90
2993;DHT22;1506;48.932;9.478;2024-03-08T01:16:52;1.90;99.90
2993;DHT22;1506;48.932;9.478;2024-03-08T01:19:19;1.90;99.90
2993;DHT22;1506;48.932;9.478;2024-03-08T01:21:46;1.80;99.90
2993;DHT22;1506;48.932;9.478;2024-03-08T01:24:13;1.60;99.90
2993;DHT22;1506;48.932;9.478;2024-03-08T01:26:40;1.90;99.90
2993;DHT22;1506;48.932;9.478;2024-03-08T01:29:07;1.60;99.90
2993;DHT22;1506;48.932;9.478;2024-03-08T01:31:35;1.60;99.90
2993;DHT22;1506;48.932;9.478;2024-03-08T01:34:03;1.70;99.90
2993;DHT22;1506;48.932;9.478;2024-03-08T01:36:31;1.40;99.90
2993;DHT22;1506;48.932;9.478;2024-03-08T01:38:58;1.40;99.90
2993;DHT22;1506;48.932;9.478;2024-03-08T01:41:25;1.50;99.90
2993;DHT22;1506;48.932;9.478;2024-03-08T01:43:54;1.60;99.90
2993;DHT22;1506;48.932;9.478;2024-03-08T01:46:21;1.80;99.90
2993;DHT22;1506;48.932;9.478;2024-03-08T01:48:49;1.60;99.90
2993;DHT22;1506;48.932;9.478;2024-03-08T01:51:18;1.60;99.90
2993;DHT22;1506;48.932;9.478;2024-03-08T01:53:46;1.70;99.90
2993;DHT22;1506;48.932;9.478;2024-03-08T01:56:13;1.90;97.40
2993;DHT22;1506;48.932;9.478;2024-03-08T01:58:41;1.90;93.90
2993;DHT22;1506;48.932;9.478;2024-03-08T02:01:11;1.90;80.40
2993;DHT22;1506;48.932;9.478;2024-03-08T02:03:38;2.30;91.40
2993;DHT22;1506;48.932;9.478;2024-03-08T02:06:04;1.90;74.60
2993;DHT22;1506;48.932;9.478;2024-03-08T02:08:35;2.20;89.10
2993;DHT22;1506;48.932;9.478;2024-03-08T02:11:02;1.90;82.90
2993;DHT22;1506;48.932;9.478;2024-03-08T02:13:29;2.00;57.80
2993;DHT22;1506;48.932;9.478;2024-03-08T02:15:57;2.00;37.00
2993;DHT22;1506;48.932;9.478;2024-03-08T02:18:26;2.30;28.20
2993;DHT22;1506;48.932;9.478;2024-03-08T02:20:57;2.00;33.10
2993;DHT22;1506;48.932;9.478;2024-03-08T02:23:24;2.00;37.30
2993;DHT22;1506;48.932;9.478;2024-03-08T02:25:52;2.00;40.80
2993;DHT22;1506;48.932;9.478;2024-03-08T02:28:20;2.10;38.40
2993;DHT22;1506;48.932;9.478;2024-03-08T02:30:47;2.00;34.20
2993;DHT22;1506;48.932;9.478;2024-03-08T02:33:14;1.90;55.70
2993;DHT22;1506;48.932;9.478;2024-03-08T02:35:45;1.90;37.50
2993;DHT22;1506;48.932;9.478;2024-03-08T02:38:15;2.00;22.00
2993;DHT22;1506;48.932;9.478;2024-03-08T02:40:43;2.00;30.10
2993;DHT22;1506;48.932;9.478;2024-03-08T02:43:13;1.90;50.70
2993;DHT22;1506;48.932;9.478;2024-03-08T02:45:44;2.10;56.70
2993;DHT22;1506;48.932;9.478;2024-03-08T02:48:12;2.00;45.50
2993;DHT22;1506;48.932;9.478;2024-03-08T02:50:40;2.00;44.30
2993;DHT22;1506;48.932;9.478;2024-03-08T02:53:07;2.00;28.70
2993;DHT22;1506;48.932;9.478;2024-03-08T02:55:34;2.00;28.60
2993;DHT22;1506;48.932;9.478;2024-03-08T02:58:04;2.20;43.30
2993;DHT22;1506;48.932;9.478;2024-03-08T03:00:31;1.90;33.60
2993;DHT22;1506;48.932;9.478;2024-03-08T03:02:59;1.90;35.60
2993;DHT22;1506;48.932;9.478;2024-03-08T03:05:26;1.70;40.20
2993;DHT22;1506;48.932;9.478;2024-03-08T03:07:53;1.70;60.70
2993;DHT22;1506;48.932;9.478;2024-03-08T03:10:20;1.60;89.30
2993;DHT22;1506;48.932;9.478;2024-03-08T03:12:48;1.70;96.60
2993;DHT22;1506;48.932;9.478;2024-03-08T03:15:15;1.70;92.60
2993;DHT22;1506;48.932;9.478;2024-03-08T03:17:49;1.60;81.90
2993;DHT22;1506;48.932;9.478;2024-03-08T03:20:19;1.60;78.00
2993;DHT22;1506;48.932;9.478;2024-03-08T03:22:59;1.50;84.70
2993;DHT22;1506;48.932;9.478;2024-03-08T03:25:30;1.60;97.00
2993;DHT22;1506;48.932;9.478;2024-03-08T03:28:02;1.60;93.70
2993;DHT22;1506;48.932;9.478;2024-03-08T03:30:30;1.50;99.90
2993;DHT22;1506;48.932;9.478;2024-03-08T03:33:00;1.60;97.90
2993;DHT22;1506;48.932;9.478;2024-03-08T03:35:28;1.70;92.90
2993;DHT22;1506;48.932;9.478;2024-03-08T03:37:56;1.50;95.60
2993;DHT22;1506;48.932;9.478;2024-03-08T03:40:37;1.50;99.90
2993;DHT22;1506;48.932;9.478;2024-03-08T03:43:05;1.90;90.70
2993;DHT22;1506;48.932;9.478;2024-03-08T03:45:31;1.60;83.40
2993;DHT22;1506;48.932;9.478;2024-03-08T03:48:04;1.90;82.10
2993;DHT22;1506;48.932;9.478;2024-03-08T03:50:32;1.70;75.80
2993;DHT22;1506;48.932;9.478;2024-03-08T03:53:03;1.60;78.10
2993;DHT22;1506;48.932;9.478;2024-03-08T03:55:30;1.60;80.40
2993;DHT22;1506;48.932;9.478;2024-03-08T03:57:57;1.50;88.50
2993;DHT22;1506;48.932;9.478;2024-03-08T04:00:26;1.40;95.80
2993;DHT22;1506;48.932;9.478;2024-03-08T04:02:54;1.40;99.90
2993;DHT22;1506;48.932;9.478;2024-03-08T04:05:27;1.30;99.90
2993;DHT22;1506;48.932;9.478;2024-03-08T04:07:55;1.20;99.90
2993;DHT22;1506;48.932;9.478;2024-03-08T04:10:22;1.30;99.90
2993;DHT22;1506;48.932;9.478;2024-03-08T04:12:49;1.10;99.90
2993;DHT22;1506;48.932;9.478;2024-03-08T04:15:16;1.10;99.90
2993;DHT22;1506;48.932;9.478;2024-03-08T04:17:43;1.00;99.90
2993;DHT22;1506;48.932;9.478;2024-03-08T04:20:13;1.20;99.90
2993;DHT22;1506;48.932;9.478;2024-03-08T04:22:42;1.30;99.90
2993;DHT22;1506;48.932;9.478;2024-03-08T04:25:10;1.20;99.90
2993;DHT22;1506;48.932;9.478;2024-03-08T04:27:37;1.30;99.90
2993;DHT22;1506;48.932;9.478;2024-03-08T04:30:05;1.50;99.90
2993;DHT22;1506;48.932;9.478;2024-03-08T04:32:35;1.50;99.90
2993;DHT22;1506;48.932;9.478;2024-03-08T04:35:02;1.30;99.90
2993;DHT22;1506;48.932;9.478;2024-03-08T04:37:30;1.30;99.90
2993;DHT22;1506;48.932;9.478;2024-03-08T04:39:58;1.30;99.90
2993;DHT22;1506;48.932;9.478;2024-03-08T04:42:26;1.40;99.90
2993;DHT22;1506;48.932;9.478;2024-03-08T04:44:53;1.30;99.90
2993;DHT22;1506;48.932;9.478;2024-03-08T04:47:20;1.40;99.90
2993;DHT22;1506;48.932;9.478;2024-03-08T04:49:48;1.50;99.90
2993;DHT22;1506;48.932;9.478;2024-03-08T04:52:14;1.30;99.90
2993;DHT22;1506;48.932;9.478;2024-03-08T04:54:41;1.40;99.90
2993;DHT22;1506;48.932;9.478;2024-03-08T04:57:09;1.30;99.90
2993;DHT22;1506;48.932;9.478;2024-03-08T04:59:36;1.30;99.90
2993;DHT22;1506;48.932;9.478;2024-03-08T05:02:03;1.30;99.90
2993;DHT22;1506;48.932;9.478;2024-03-08T05:04:30;1.30;99.90
2993;DHT22;1506;48.932;9.478;2024-03-08T05:06:57;1.20;99.90
2993;DHT22;1506;48.932;9.478;2024-03-08T05:09:26;1.30;99.90
2993;DHT22;1506;48.932;9.478;2024-03-08T05:11:56;1.60;99.90
2993;DHT22;1506;48.932;9.478;2024-03-08T05:14:25;1.40;99.90
2993;DHT22;1506;48.932;9.478;2024-03-08T05:16:52;1.20;99.90
2993;DHT22;1506;48.932;9.478;2024-03-08T05:19:19;1.40;99.90
2993;DHT22;1506;48.932;9.478;2024-03-08T05:21:47;1.40;99.90
2993;DHT22;1506;48.932;9.478;2024-03-08T05:24:15;1.50;99.90
2993;DHT22;1506;48.932;9.478;2024-03-08T05:26:45;1.40;99.90
2993;DHT22;1506;48.932;9.478;2024-03-08T05:29:12;1.30;99.90
2993;DHT22;1506;48.932;9.478;2024-03-08T05:31:50;1.30;99.90
2993;DHT22;1506;48.932;9.478;2024-03-08T05:34:20;1.50;99.90
2993;DHT22;1506;48.932;9.478;2024-03-08T05:36:48;1.30;99.90
2993;DHT22;1506;48.932;9.478;2024-03-08T05:39:18;1.30;99.90
2993;DHT22;1506;48.932;9.478;2024-03-08T05:41:47;1.20;99.90
2993;DHT22;1506;48.932;9.478;2024-03-08T05:44:14;1.40;99.90
2993;DHT22;1506;48.932;9.478;2024-03-08T05:46:43;1.30;99.90
2993;DHT22;1506;48.932;9.478;2024-03-08T05:49:10;1.30;99.90
2993;DHT22;1506;48.932;9.478;2024-03-08T05:51:39;1.70;99.90
2993;DHT22;1506;48.932;9.478;2024-03-08T05:54:10;1.40;99.90
2993;DHT22;1506;48.932;9.478;2024-03-08T05:56:41;1.40;99.90
2993;DHT22;1506;48.932;9.478;2024-03-08T05:59:11;1.50;99.90
2993;DHT22;1506;48.932;9.478;2024-03-08T06:01:39;1.30;99.90
2993;DHT22;1506;48.932;9.478;2024-03-08T06:04:09;1.30;99.90
2993;DHT22;1506;48.932;9.478;2024-03-08T06:06:38;1.30;99.90
2993;DHT22;1506;48.932;9.478;2024-03-08T06:09:06;1.30;99.90
2993;DHT22;1506;48.932;9.478;2024-03-08T06:11:39;1.50;99.90
2993;DHT22;1506;48.932;9.478;2024-03-08T06:14:06;1.60;99.90
2993;DHT22;1506;48.932;9.478;2024-03-08T06:16:33;1.60;99.90
2993;DHT22;1506;48.932;9.478;2024-03-08T06:19:02;1.80;99.90
2993;DHT22;1506;48.932;9.478;2024-03-08T06:21:30;1.80;99.90
2993;DHT22;1506;48.932;9.478;2024-03-08T06:23:56;1.80;99.90
2993;DHT22;1506;48.932;9.478;2024-03-08T06:26:26;1.80;99.60
2993;DHT22;1506;48.932;9.478;2024-03-08T06:28:57;1.90;93.70
2993;DHT22;1506;48.932;9.478;2024-03-08T06:31:25;2.00;87.70
2993;DHT22;1506;48.932;9.478;2024-03-08T06:33:52;2.10;71.90
2993;DHT22;1506;48.932;9.478;2024-03-08T06:36:23;2.20;60.10
2993;DHT22;1506;48.932;9.478;2024-03-08T06:38:50;2.20;40.40
2993;DHT22;1506;48.932;9.478;2024-03-08T06:41:17;2.30;9.50
2993;DHT22;1506;48.932;9.478;2024-03-08T06:43:45;2.40;9.90
2993;DHT22;1506;48.932;9.478;2024-03-08T06:46:12;2.60;1.00
2993;DHT22;1506;48.932;9.478;2024-03-08T06:48:41;2.70;1.00
2993;DHT22;1506;48.932;9.478;2024-03-08T06:51:08;2.80;1.00
2993;DHT22;1506;48.932;9.478;2024-03-08T06:53:35;2.80;1.00
2993;DHT22;1506;48.932;9.478;2024-03-08T06:56:02;2.90;1.00
2993;DHT22;1506;48.932;9.478;2024-03-08T06:58:29;2.80;1.00
2993;DHT22;1506;48.932;9.478;2024-03-08T07:00:56;2.70;1.00
2993;DHT22;1506;48.932;9.478;2024-03-08T07:03:27;2.70;1.00
2993;DHT22;1506;48.932;9.478;2024-03-08T07:05:56;2.80;1.00
2993;DHT22;1506;48.932;9.478;2024-03-08T07:08:25;2.80;1.00
2993;DHT22;1506;48.932;9.478;2024-03-08T07:10:54;2.80;1.00
2993;DHT22;1506;48.932;9.478;2024-03-08T07:13:22;2.80;1.00
2993;DHT22;1506;48.932;9.478;2024-03-08T07:15:49;2.80;1.00
2993;DHT22;1506;48.932;9.478;2024-03-08T07:18:16;2.90;1.00
2993;DHT22;1506;48.932;9.478;2024-03-08T07:20:43;2.80;1.00
2993;DHT22;1506;48.932;9.478;2024-03-08T07:23:11;2.80;1.00
2993;DHT22;1506;48.932;9.478;2024-03-08T07:25:50;2.80;1.00
2993;DHT22;1506;48.932;9.478;2024-03-08T07:28:17;2.80;1.00
2993;DHT22;1506;48.932;9.478;2024-03-08T07:30:45;2.90;1.00
2993;DHT22;1506;48.932;9.478;2024-03-08T07:33:12;3.00;1.00
2993;DHT22;1506;48.932;9.478;2024-03-08T07:35:40;3.30;1.00
2993;DHT22;1506;48.932;9.478;2024-03-08T07:38:08;3.10;1.00
2993;DHT22;1506;48.932;9.478;2024-03-08T07:40:39;3.10;1.00
2993;DHT22;1506;48.932;9.478;2024-03-08T07:43:07;3.10;1.00
2993;DHT22;1506;48.932;9.478;2024-03-08T07:45:35;3.10;1.00
2993;DHT22;1506;48.932;9.478;2024-03-08T07:48:03;3.00;1.00
2993;DHT22;1506;48.932;9.478;2024-03-08T07:50:30;3.00;1.00
2993;DHT22;1506;48.932;9.478;2024-03-08T07:52:58;3.10;1.00
2993;DHT22;1506;48.932;9.478;2024-03-08T07:55:25;3.10;1.00
2993;DHT22;1506;48.932;9.478;2024-03-08T07:57:53;3.10;1.00
2993;DHT22;1506;48.932;9.478;2024-03-08T08:00:20;3.10;1.00
2993;DHT22;1506;48.932;9.478;2024-03-08T08:02:48;3.20;1.00
2993;DHT22;1506;48.932;9.478;2024-03-08T08:05:16;3.20;1.00
2993;DHT22;1506;48.932;9.478;2024-03-08T08:07:45;3.30;1.00
2993;DHT22;1506;48.932;9.478;2024-03-08T08:10:16;3.30;1.00
2993;DHT22;1506;48.932;9.478;2024-03-08T08:12:49;3.40;1.00
2993;DHT22;1506;48.932;9.478;2024-03-08T08:15:18;3.50;1.00
2993;DHT22;1506;48.932;9.478;2024-03-08T08:17:45;3.40;1.00
2993;DHT22;1506;48.932;9.478;2024-03-08T08:20:13;3.50;1.00
2993;DHT22;1506;48.932;9.478;2024-03-08T08:22:40;3.60;1.00
2993;DHT22;1506;48.932;9.478;2024-03-08T08:25:07;3.50;1.00
2993;DHT22;1506;48.932;9.478;2024-03-08T08:27:34;3.50;99.90
2993;DHT22;1506;48.932;9.478;2024-03-08T08:30:03;3.50;1.00
2993;DHT22;1506;48.932;9.478;2024-03-08T08:32:35;3.70;99.90
2993;DHT22;1506;48.932;9.478;2024-03-08T08:35:14;3.50;99.90
2993;DHT22;1506;48.932;9.478;2024-03-08T08:37:41;3.50;1.00
2993;DHT22;1506;48.932;9.478;2024-03-08T08:40:08;3.60;1.00
2993;DHT22;1506;48.932;9.478;2024-03-08T08:42:37;3.80;1.00
2993;DHT22;1506;48.932;9.478;2024-03-08T08:45:07;4.00;1.00
2993;DHT22;1506;48.932;9.478;2024-03-08T08:47:43;3.90;99.90
2993;DHT22;1506;48.932;9.478;2024-03-08T08:50:12;3.80;99.90
2993;DHT22;1506;48.932;9.478;2024-03-08T08:52:39;4.00;99.90
2993;DHT22;1506;48.932;9.478;2024-03-08T08:55:07;3.90;99.90
2993;DHT22;1506;48.932;9.478;2024-03-08T08:57:34;4.00;99.90
2993;DHT22;1506;48.932;9.478;2024-03-08T09:00:02;4.00;99.90
2993;DHT22;1506;48.932;9.478;2024-03-08T09:02:34;4.10;1.00
2993;DHT22;1506;48.932;9.478;2024-03-08T09:05:02;4.20;1.00
2993;DHT22;1506;48.932;9.478;2024-03-08T09:07:29;4.40;99.90
2993;DHT22;1506;48.932;9.478;2024-03-08T09:09:56;4.80;1.00
2993;DHT22;1506;48.932;9.478;2024-03-08T09:12:26;4.50;99.90
2993;DHT22;1506;48.932;9.478;2024-03-08T09:14:54;4.30;99.90
2993;DHT22;1506;48.932;9.478;2024-03-08T09:17:21;4.20;1.00
2993;DHT22;1506;48.932;9.478;2024-03-08T09:19:48;4.40;1.00
2993;DHT22;1506;48.932;9.478;2024-03-08T09:22:15;4.40;99.90
2993;DHT22;1506;48.932;9.478;2024-03-08T09:24:42;4.60;1.00
2993;DHT22;1506;48.932;9.478;2024-03-08T09:27:14;4.90;99.90
2993;DHT22;1506;48.932;9.478;2024-03-08T09:29:41;4.70;99.90
2993;DHT22;1506;48.932;9.478;2024-03-08T09:32:10;4.70;99.90
2993;DHT22;1506;48.932;9.478;2024-03-08T09:34:38;4.50;1.00
2993;DHT22;1506;48.932;9.478;2024-03-08T09:37:06;4.50;1.00
2993;DHT22;1506;48.932;9.478;2024-03-08T09:39:33;4.40;99.90
2993;DHT22;1506;48.932;9.478;2024-03-08T09:42:01;4.90;1.00
2993;DHT22;1506;48.932;9.478;2024-03-08T09:44:27;4.70;99.90
2993;DHT22;1506;48.932;9.478;2024-03-08T09:46:55;4.50;99.90
2993;DHT22;1506;48.932;9.478;2024-03-08T09:49:25;4.40;1.00
2993;DHT22;1506;48.932;9.478;2024-03-08T09:51:52;4.60;1.00
2993;DHT22;1506;48.932;9.478;2024-03-08T09:54:20;5.30;1.00
2993;DHT22;1506;48.932;9.478;2024-03-08T09:56:51;5.70;1.00
2993;DHT22;1506;48.932;9.478;2024-03-08T09:59:18;5.50;99.90
2993;DHT22;1506;48.932;9.478;2024-03-08T10:01:54;5.90;99.90
2993;DHT22;1506;48.932;9.478;2024-03-08T10:04:23;5.70;1.00
2993;DHT22;1506;48.932;9.478;2024-03-08T10:06:50;5.90;99.90
2993;DHT22;1506;48.932;9.478;2024-03-08T10:09:17;5.80;1.00
2993;DHT22;1506;48.932;9.478;2024-03-08T10:11:44;6.10;1.00
2993;DHT22;1506;48.932;9.478;2024-03-08T10:14:12;6.20;69.70
2993;DHT22;1506;48.932;9.478;2024-03-08T10:16:39;6.40;1.00
2993;DHT22;1506;48.932;9.478;2024-03-08T10:19:06;6.30;1.00
2993;DHT22;1506;48.932;9.478;2024-03-08T10:21:33;7.20;83.00
2993;DHT22;1506;48.932;9.478;2024-03-08T10:24:02;7.00;1.00
2993;DHT22;1506;48.932;9.478;2024-03-08T10:26:30;7.00;12.70
2993;DHT22;1506;48.932;9.478;2024-03-08T10:28:57;7.80;1.00
2993;DHT22;1506;48.932;9.478;2024-03-08T10:31:25;8.30;99.90
2993;DHT22;1506;48.932;9.478;2024-03-08T10:33:52;8.30;99.90
2993;DHT22;1506;48.932;9.478;2024-03-08T10:36:19;8.30;99.90
2993;DHT22;1506;48.932;9.478;2024-03-08T10:38:47;8.60;99.90
2993;DHT22;1506;48.932;9.478;2024-03-08T10:41:16;8.80;99.90
2993;DHT22;1506;48.932;9.478;2024-03-08T10:46:31;8.90;90.50
2993;DHT22;1506;48.932;9.478;2024-03-08T10:49:02;9.50;99.90
2993;DHT22;1506;48.932;9.478;2024-03-08T10:51:30;9.50;52.80
2993;DHT22;1506;48.932;9.478;2024-03-08T10:53:58;9.20;85.40
2993;DHT22;1506;48.932;9.478;2024-03-08T10:56:26;9.70;55.60
2993;DHT22;1506;48.932;9.478;2024-03-08T10:58:54;9.60;20.90
2993;DHT22;1506;48.932;9.478;2024-03-08T11:01:22;9.80;9.30
2993;DHT22;1506;48.932;9.478;2024-03-08T11:03:50;10.00;1.00
2993;DHT22;1506;48.932;9.478;2024-03-08T11:08:53;10.30;1.00
2993;DHT22;1506;48.932;9.478;2024-03-08T11:11:32;10.70;1.00
2993;DHT22;1506;48.932;9.478;2024-03-08T11:14:01;10.70;1.00
2993;DHT22;1506;48.932;9.478;2024-03-08T11:19:22;10.00;1.00
2993;DHT22;1506;48.932;9.478;2024-03-08T11:21:57;10.10;1.00
2993;DHT22;1506;48.932;9.478;2024-03-08T11:24:25;9.60;1.00
2993;DHT22;1506;48.932;9.478;2024-03-08T11:26:57;10.10;1.00
2993;DHT22;1506;48.932;9.478;2024-03-08T11:32:14;10.10;1.00
2993;DHT22;1506;48.932;9.478;2024-03-08T11:34:42;10.30;1.00
2993;DHT22;1506;48.932;9.478;2024-03-08T11:37:19;11.00;1.00
2993;DHT22;1506;48.932;9.478;2024-03-08T11:39:53;10.40;1.00
2993;DHT22;1506;48.932;9.478;2024-03-08T11:42:26;10.30;1.00
2993;DHT22;1506;48.932;9.478;2024-03-08T11:44:53;10.80;1.00
2993;DHT22;1506;48.932;9.478;2024-03-08T11:47:20;11.30;1.00
2993;DHT22;1506;48.932;9.478;2024-03-08T11:49:47;11.40;1.00
2993;DHT22;1506;48.932;9.478;2024-03-08T11:52:16;11.40;1.00
2993;DHT22;1506;48.932;9.478;2024-03-08T11:54:51;11.20;1.00
2993;DHT22;1506;48.932;9.478;2024-03-08T11:57:23;11.20;1.00
2993;DHT22;1506;48.932;9.478;2024-03-08T11:59:54;10.90;1.00
2993;DHT22;1506;48.932;9.478;2024-03-08T12:02:24;11.00;1.00
2993;DHT22;1506;48.932;9.478;2024-03-08T12:04:57;10.90;1.00
2993;DHT22;1506;48.932;9.478;2024-03-08T12:07:27;11.40;1.00
2993;DHT22;1506;48.932;9.478;2024-03-08T12:10:18;11.30;1.00
2993;DHT22;1506;48.932;9.478;2024-03-08T12:12:52;11.60;1.00
2993;DHT22;1506;48.932;9.478;2024-03-08T12:15:19;12.30;1.00
2993;DHT22;1506;48.932;9.478;2024-03-08T12:17:48;11.90;1.00
2993;DHT22;1506;48.932;9.478;2024-03-08T12:22:43;11.60;1.00
2993;DHT22;1506;48.932;9.478;2024-03-08T12:25:13;11.50;1.00
2993;DHT22;1506;48.932;9.478;2024-03-08T12:27:41;12.00;1.00
2993;DHT22;1506;48.932;9.478;2024-03-08T12:32:57;11.90;1.00
2993;DHT22;1506;48.932;9.478;2024-03-08T12:35:28;12.00;1.00
2993;DHT22;1506;48.932;9.478;2024-03-08T12:37:55;12.50;1.00
2993;DHT22;1506;48.932;9.478;2024-03-08T12:40:26;12.40;1.00
2993;DHT22;1506;48.932;9.478;2024-03-08T12:42:58;12.10;1.00
2993;DHT22;1506;48.932;9.478;2024-03-08T12:45:25;12.40;1.00
2993;DHT22;1506;48.932;9.478;2024-03-08T12:47:55;12.30;1.00
2993;DHT22;1506;48.932;9.478;2024-03-08T12:50:22;12.60;1.00
2993;DHT22;1506;48.932;9.478;2024-03-08T12:52:51;12.60;1.00
2993;DHT22;1506;48.932;9.478;2024-03-08T12:55:19;12.40;1.00
2993;DHT22;1506;48.932;9.478;2024-03-08T12:57:47;11.60;1.00
2993;DHT22;1506;48.932;9.478;2024-03-08T13:00:15;12.20;1.00
2993;DHT22;1506;48.932;9.478;2024-03-08T13:02:50;12.40;1.00
2993;DHT22;1506;48.932;9.478;2024-03-08T13:05:18;12.30;1.00
2993;DHT22;1506;48.932;9.478;2024-03-08T13:07:46;12.20;1.00
2993;DHT22;1506;48.932;9.478;2024-03-08T13:10:14;12.60;1.00
2993;DHT22;1506;48.932;9.478;2024-03-08T13:12:47;13.00;1.00
2993;DHT22;1506;48.932;9.478;2024-03-08T13:15:16;13.60;1.00
2993;DHT22;1506;48.932;9.478;2024-03-08T13:17:47;13.30;1.00
2993;DHT22;1506;48.932;9.478;2024-03-08T13:20:15;12.90;1.00
2993;DHT22;1506;48.932;9.478;2024-03-08T13:22:56;12.20;1.00
2993;DHT22;1506;48.932;9.478;2024-03-08T13:25:23;11.90;1.00
2993;DHT22;1506;48.932;9.478;2024-03-08T13:27:51;11.70;1.00
2993;DHT22;1506;48.932;9.478;2024-03-08T13:30:21;11.60;1.00
2993;DHT22;1506;48.932;9.478;2024-03-08T13:32:54;12.10;1.00
2993;DHT22;1506;48.932;9.478;2024-03-08T13:35:21;12.30;1.00
2993;DHT22;1506;48.932;9.478;2024-03-08T13:37:51;12.30;1.00
2993;DHT22;1506;48.932;9.478;2024-03-08T13:40:18;11.90;1.00
2993;DHT22;1506;48.932;9.478;2024-03-08T13:42:47;11.70;1.00
2993;DHT22;1506;48.932;9.478;2024-03-08T13:45:16;11.50;1.00
2993;DHT22;1506;48.932;9.478;2024-03-08T13:47:49;11.60;1.00
2993;DHT22;1506;48.932;9.478;2024-03-08T13:50:18;11.80;1.00
2993;DHT22;1506;48.932;9.478;2024-03-08T13:52:48;12.20;1.00
2993;DHT22;1506;48.932;9.478;2024-03-08T13:55:21;11.40;1.00
2993;DHT22;1506;48.932;9.478;2024-03-08T13:57:49;11.10;1.00
2993;DHT22;1506;48.932;9.478;2024-03-08T14:00:18;10.90;1.00
2993;DHT22;1506;48.932;9.478;2024-03-08T14:02:50;10.80;1.00
2993;DHT22;1506;48.932;9.478;2024-03-08T14:05:20;10.70;1.00
2993;DHT22;1506;48.932;9.478;2024-03-08T14:07:47;10.90;1.00
2993;DHT22;1506;48.932;9.478;2024-03-08T14:10:17;10.80;1.00
2993;DHT22;1506;48.932;9.478;2024-03-08T14:12:47;10.70;1.00
2993;DHT22;1506;48.932;9.478;2024-03-08T14:15:17;10.90;1.00
2993;DHT22;1506;48.932;9.478;2024-03-08T14:17:45;10.90;1.00
2993;DHT22;1506;48.932;9.478;2024-03-08T14:20:14;10.80;1.00
2993;DHT22;1506;48.932;9.478;2024-03-08T14:22:41;10.60;1.00
2993;DHT22;1506;48.932;9.478;2024-03-08T14:25:08;11.10;1.00
2993;DHT22;1506;48.932;9.478;2024-03-08T14:27:45;10.80;1.00
2993;DHT22;1506;48.932;9.478;2024-03-08T14:30:13;10.90;1.00
2993;DHT22;1506;48.932;9.478;2024-03-08T14:32:40;10.90;1.00
2993;DHT22;1506;48.932;9.478;2024-03-08T14:35:08;11.00;1.00
2993;DHT22;1506;48.932;9.478;2024-03-08T14:37:38;11.00;1.00
2993;DHT22;1506;48.932;9.478;2024-03-08T14:40:05;11.10;1.00
2993;DHT22;1506;48.932;9.478;2024-03-08T14:42:32;10.90;1.00
2993;DHT22;1506;48.932;9.478;2024-03-08T14:44:59;10.80;1.00
2993;DHT22;1506;48.932;9.478;2024-03-08T14:47:27;10.70;1.00
2993;DHT22;1506;48.932;9.478;2024-03-08T14:49:55;10.90;1.00
2993;DHT22;1506;48.932;9.478;2024-03-08T14:52:22;11.00;1.00
2993;DHT22;1506;48.932;9.478;2024-03-08T14:54:56;11.00;1.00
2993;DHT22;1506;48.932;9.478;2024-03-08T14:57:25;11.10;1.00
2993;DHT22;1506;48.932;9.478;2024-03-08T14:59:52;11.10;1.00
2993;DHT22;1506;48.932;9.478;2024-03-08T15:02:19;11.20;1.00
2993;DHT22;1506;48.932;9.478;2024-03-08T15:04:49;11.00;1.00
2993;DHT22;1506;48.932;9.478;2024-03-08T15:07:24;11.00;1.00
2993;DHT22;1506;48.932;9.478;2024-03-08T15:09:57;10.90;1.00
2993;DHT22;1506;48.932;9.478;2024-03-08T15:12:24;10.80;1.00
2993;DHT22;1506;48.932;9.478;2024-03-08T15:14:53;10.80;1.00
2993;DHT22;1506;48.932;9.478;2024-03-08T15:17:22;10.80;1.00
2993;DHT22;1506;48.932;9.478;2024-03-08T15:19:49;10.90;1.00
2993;DHT22;1506;48.932;9.478;2024-03-08T15:22:17;10.80;1.00
2993;DHT22;1506;48.932;9.478;2024-03-08T15:24:44;10.70;1.00
2993;DHT22;1506;48.932;9.478;2024-03-08T15:27:16;10.70;1.00
2993;DHT22;1506;48.932;9.478;2024-03-08T15:29:43;10.70;1.00
2993;DHT22;1506;48.932;9.478;2024-03-08T15:32:14;10.60;1.00
2993;DHT22;1506;48.932;9.478;2024-03-08T15:34:49;10.60;1.00
2993;DHT22;1506;48.932;9.478;2024-03-08T15:37:16;10.60;1.00
2993;DHT22;1506;48.932;9.478;2024-03-08T15:39:46;10.60;1.00
2993;DHT22;1506;48.932;9.478;2024-03-08T15:42:13;10.50;1.00
2993;DHT22;1506;48.932;9.478;2024-03-08T15:44:39;10.50;1.00
2993;DHT22;1506;48.932;9.478;2024-03-08T15:47:11;10.60;1.00
2993;DHT22;1506;48.932;9.478;2024-03-08T15:49:38;10.50;1.00
2993;DHT22;1506;48.932;9.478;2024-03-08T15:52:05;10.50;1.00
2993;DHT22;1506;48.932;9.478;2024-03-08T15:54:33;10.60;1.00
2993;DHT22;1506;48.932;9.478;2024-03-08T15:57:00;10.60;1.00
2993;DHT22;1506;48.932;9.478;2024-03-08T15:59:27;10.50;1.00
2993;DHT22;1506;48.932;9.478;2024-03-08T16:01:55;10.50;1.00
2993;DHT22;1506;48.932;9.478;2024-03-08T16:04:22;10.60;1.00
2993;DHT22;1506;48.932;9.478;2024-03-08T16:06:52;10.50;1.00
2993;DHT22;1506;48.932;9.478;2024-03-08T16:09:19;10.40;1.00
2993;DHT22;1506;48.932;9.478;2024-03-08T16:11:46;10.30;1.00
2993;DHT22;1506;48.932;9.478;2024-03-08T16:14:13;10.40;1.00
2993;DHT22;1506;48.932;9.478;2024-03-08T16:16:43;10.40;1.00
2993;DHT22;1506;48.932;9.478;2024-03-08T16:19:10;10.40;1.00
2993;DHT22;1506;48.932;9.478;2024-03-08T16:21:40;10.40;1.00
2993;DHT22;1506;48.932;9.478;2024-03-08T16:24:07;10.40;1.00
2993;DHT22;1506;48.932;9.478;2024-03-08T16:26:36;10.30;1.00
2993;DHT22;1506;48.932;9.478;2024-03-08T16:29:02;10.30;1.00
2993;DHT22;1506;48.932;9.478;2024-03-08T16:31:31;10.40;1.00
2993;DHT22;1506;48.932;9.478;2024-03-08T16:33:58;10.10;1.00
2993;DHT22;1506;48.932;9.478;2024-03-08T16:36:25;10.00;1.00
2993;DHT22;1506;48.932;9.478;2024-03-08T16:38:54;10.10;1.00
2993;DHT22;1506;48.932;9.478;2024-03-08T16:41:20;10.00;1.00
2993;DHT22;1506;48.932;9.478;2024-03-08T16:43:48;9.90;1.00
2993;DHT22;1506;48.932;9.478;2024-03-08T16:46:16;9.80;1.00